sensor_id;sensor_type;location;lat;lon;timestamp;P1;durP1;ratioP1;P2;durP2;ratioP2
15454;SDS011;21057;51.024;7.540;2023-03-23T00:01:22;31.33;;;29.33;;
15454;SDS011;21057;51.024;7.540;2023-03-23T00:03:53;32.57;;;30.23;;
15454;SDS011;21057;51.024;7.540;2023-03-23T00:06:29;32.10;;;30.20;;
15454;SDS011;21057;51.024;7.540;2023-03-23T00:08:58;32.10;;;30.30;;
15454;SDS011;21057;51.024;7.540;2023-03-23T00:11:28;32.27;;;30.27;;
15454;SDS011;21057;51.024;7.540;2023-03-23T00:13:58;31.37;;;29.57;;
15454;SDS011;21057;51.024;7.540;2023-03-23T00:19:07;32.13;;;30.13;;
15454;SDS011;21057;51.024;7.540;2023-03-23T00:21:38;32.80;;;30.93;;
15454;SDS011;21057;51.024;7.540;2023-03-23T00:24:08;30.93;;;29.13;;
15454;SDS011;21057;51.024;7.540;2023-03-23T00:26:37;31.50;;;29.70;;
15454;SDS011;21057;51.024;7.540;2023-03-23T00:29:07;30.57;;;28.87;;
15454;SDS011;21057;51.024;7.540;2023-03-23T00:31:39;32.13;;;30.03;;
15454;SDS011;21057;51.024;7.540;2023-03-23T00:34:08;32.83;;;30.83;;
15454;SDS011;21057;51.024;7.540;2023-03-23T00:36:39;31.07;;;29.17;;
15454;SDS011;21057;51.024;7.540;2023-03-23T00:39:09;31.60;;;29.77;;
15454;SDS011;21057;51.024;7.540;2023-03-23T00:41:36;30.80;;;29.00;;
15454;SDS011;21057;51.024;7.540;2023-03-23T00:44:04;30.17;;;28.17;;
15454;SDS011;21057;51.024;7.540;2023-03-23T00:46:33;31.23;;;29.43;;
15454;SDS011;21057;51.024;7.540;2023-03-23T00:49:11;30.03;;;28.10;;
15454;SDS011;21057;51.024;7.540;2023-03-23T00:51:38;29.77;;;28.07;;
15454;SDS011;21057;51.024;7.540;2023-03-23T00:54:05;29.57;;;27.77;;
15454;SDS011;21057;51.024;7.540;2023-03-23T00:56:33;29.97;;;28.27;;
15454;SDS011;21057;51.024;7.540;2023-03-23T00:59:00;30.70;;;28.80;;
15454;SDS011;21057;51.024;7.540;2023-03-23T01:01:28;30.53;;;28.77;;
15454;SDS011;21057;51.024;7.540;2023-03-23T01:03:55;29.97;;;28.20;;
15454;SDS011;21057;51.024;7.540;2023-03-23T01:06:27;30.00;;;28.10;;
15454;SDS011;21057;51.024;7.540;2023-03-23T01:08:55;30.40;;;28.40;;
15454;SDS011;21057;51.024;7.540;2023-03-23T01:11:22;30.63;;;28.73;;
15454;SDS011;21057;51.024;7.540;2023-03-23T01:13:50;32.30;;;30.17;;
15454;SDS011;21057;51.024;7.540;2023-03-23T01:16:17;31.43;;;29.57;;
15454;SDS011;21057;51.024;7.540;2023-03-23T01:18:44;31.50;;;29.50;;
15454;SDS011;21057;51.024;7.540;2023-03-23T01:21:12;29.67;;;27.60;;
15454;SDS011;21057;51.024;7.540;2023-03-23T01:23:42;30.03;;;28.23;;
15454;SDS011;21057;51.024;7.540;2023-03-23T01:26:10;31.53;;;29.63;;
15454;SDS011;21057;51.024;7.540;2023-03-23T01:28:41;30.10;;;28.40;;
15454;SDS011;21057;51.024;7.540;2023-03-23T01:31:09;28.90;;;27.10;;
15454;SDS011;21057;51.024;7.540;2023-03-23T01:33:43;28.47;;;26.77;;
15454;SDS011;21057;51.024;7.540;2023-03-23T01:36:12;29.23;;;27.30;;
15454;SDS011;21057;51.024;7.540;2023-03-23T01:38:40;29.30;;;27.57;;
15454;SDS011;21057;51.024;7.540;2023-03-23T01:41:20;29.60;;;27.90;;
15454;SDS011;21057;51.024;7.540;2023-03-23T01:43:58;30.20;;;28.40;;
15454;SDS011;21057;51.024;7.540;2023-03-23T01:46:30;30.47;;;28.60;;
15454;SDS011;21057;51.024;7.540;2023-03-23T01:48:59;30.30;;;28.50;;
15454;SDS011;21057;51.024;7.540;2023-03-23T01:51:31;29.13;;;27.33;;
15454;SDS011;21057;51.024;7.540;2023-03-23T01:54:04;30.13;;;28.33;;
15454;SDS011;21057;51.024;7.540;2023-03-23T01:56:36;31.57;;;29.73;;
15454;SDS011;21057;51.024;7.540;2023-03-23T01:59:14;31.50;;;29.70;;
15454;SDS011;21057;51.024;7.540;2023-03-23T02:01:41;30.60;;;28.70;;
15454;SDS011;21057;51.024;7.540;2023-03-23T02:04:10;30.47;;;28.57;;
15454;SDS011;21057;51.024;7.540;2023-03-23T02:06:37;31.27;;;29.37;;
15454;SDS011;21057;51.024;7.540;2023-03-23T02:11:50;31.07;;;29.00;;
15454;SDS011;21057;51.024;7.540;2023-03-23T02:14:19;31.57;;;29.67;;
15454;SDS011;21057;51.024;7.540;2023-03-23T02:16:47;33.03;;;31.13;;
15454;SDS011;21057;51.024;7.540;2023-03-23T02:19:37;30.97;;;29.17;;
15454;SDS011;21057;51.024;7.540;2023-03-23T02:25:27;31.57;;;29.77;;
15454;SDS011;21057;51.024;7.540;2023-03-23T02:28:34;32.27;;;30.17;;
15454;SDS011;21057;51.024;7.540;2023-03-23T02:31:29;32.93;;;31.03;;
15454;SDS011;21057;51.024;7.540;2023-03-23T02:34:10;33.23;;;30.87;;
15454;SDS011;21057;51.024;7.540;2023-03-23T02:36:41;32.70;;;30.80;;
15454;SDS011;21057;51.024;7.540;2023-03-23T02:39:14;32.80;;;30.80;;
15454;SDS011;21057;51.024;7.540;2023-03-23T02:41:47;33.70;;;31.50;;
15454;SDS011;21057;51.024;7.540;2023-03-23T02:44:19;31.20;;;29.30;;
15454;SDS011;21057;51.024;7.540;2023-03-23T02:46:47;31.83;;;29.83;;
15454;SDS011;21057;51.024;7.540;2023-03-23T02:52:07;32.87;;;30.87;;
15454;SDS011;21057;51.024;7.540;2023-03-23T02:54:37;33.27;;;31.37;;
15454;SDS011;21057;51.024;7.540;2023-03-23T02:57:06;32.47;;;30.57;;
15454;SDS011;21057;51.024;7.540;2023-03-23T02:59:33;32.07;;;30.17;;
15454;SDS011;21057;51.024;7.540;2023-03-23T03:04:53;32.37;;;30.47;;
15454;SDS011;21057;51.024;7.540;2023-03-23T03:07:36;33.40;;;31.40;;
15454;SDS011;21057;51.024;7.540;2023-03-23T03:10:19;32.43;;;30.13;;
15454;SDS011;21057;51.024;7.540;2023-03-23T03:12:53;32.30;;;30.40;;
15454;SDS011;21057;51.024;7.540;2023-03-23T03:15:33;32.47;;;30.57;;
15454;SDS011;21057;51.024;7.540;2023-03-23T03:18:06;32.33;;;30.43;;
15454;SDS011;21057;51.024;7.540;2023-03-23T03:20:46;31.30;;;29.40;;
15454;SDS011;21057;51.024;7.540;2023-03-23T03:23:18;31.93;;;29.93;;
15454;SDS011;21057;51.024;7.540;2023-03-23T03:25:48;30.70;;;28.90;;
15454;SDS011;21057;51.024;7.540;2023-03-23T03:28:18;32.97;;;31.03;;
15454;SDS011;21057;51.024;7.540;2023-03-23T03:30:47;31.93;;;29.93;;
15454;SDS011;21057;51.024;7.540;2023-03-23T03:33:19;31.33;;;29.43;;
15454;SDS011;21057;51.024;7.540;2023-03-23T03:35:51;30.30;;;28.50;;
15454;SDS011;21057;51.024;7.540;2023-03-23T03:38:20;30.77;;;28.97;;
15454;SDS011;21057;51.024;7.540;2023-03-23T03:40:47;29.83;;;28.03;;
15454;SDS011;21057;51.024;7.540;2023-03-23T03:43:16;31.27;;;29.33;;
15454;SDS011;21057;51.024;7.540;2023-03-23T03:45:43;31.10;;;29.23;;
15454;SDS011;21057;51.024;7.540;2023-03-23T03:48:10;32.17;;;30.23;;
15454;SDS011;21057;51.024;7.540;2023-03-23T03:50:40;30.63;;;28.83;;
15454;SDS011;21057;51.024;7.540;2023-03-23T03:53:09;31.93;;;29.93;;
15454;SDS011;21057;51.024;7.540;2023-03-23T03:55:35;31.83;;;29.93;;
15454;SDS011;21057;51.024;7.540;2023-03-23T03:58:04;31.30;;;29.50;;
15454;SDS011;21057;51.024;7.540;2023-03-23T04:00:32;32.77;;;30.53;;
15454;SDS011;21057;51.024;7.540;2023-03-23T04:02:59;31.83;;;29.93;;
15454;SDS011;21057;51.024;7.540;2023-03-23T04:05:26;31.60;;;29.73;;
15454;SDS011;21057;51.024;7.540;2023-03-23T04:07:54;31.73;;;29.63;;
15454;SDS011;21057;51.024;7.540;2023-03-23T04:10:30;30.90;;;28.87;;
15454;SDS011;21057;51.024;7.540;2023-03-23T04:12:58;31.37;;;29.57;;
15454;SDS011;21057;51.024;7.540;2023-03-23T04:15:25;32.20;;;30.20;;
15454;SDS011;21057;51.024;7.540;2023-03-23T04:17:52;31.77;;;29.67;;
15454;SDS011;21057;51.024;7.540;2023-03-23T04:20:30;33.60;;;31.10;;
15454;SDS011;21057;51.024;7.540;2023-03-23T04:22:59;33.13;;;31.13;;
15454;SDS011;21057;51.024;7.540;2023-03-23T04:25:26;38.10;;;36.00;;
15454;SDS011;21057;51.024;7.540;2023-03-23T04:28:05;39.43;;;37.23;;
15454;SDS011;21057;51.024;7.540;2023-03-23T04:30:32;40.43;;;38.13;;
15454;SDS011;21057;51.024;7.540;2023-03-23T04:32:58;40.00;;;37.70;;
15454;SDS011;21057;51.024;7.540;2023-03-23T04:35:33;35.60;;;33.50;;
15454;SDS011;21057;51.024;7.540;2023-03-23T04:38:00;39.17;;;37.07;;
15454;SDS011;21057;51.024;7.540;2023-03-23T04:40:27;40.23;;;38.03;;
15454;SDS011;21057;51.024;7.540;2023-03-23T04:42:53;40.50;;;38.30;;
15454;SDS011;21057;51.024;7.540;2023-03-23T04:45:32;37.57;;;35.47;;
15454;SDS011;21057;51.024;7.540;2023-03-23T04:48:02;39.07;;;36.87;;
15454;SDS011;21057;51.024;7.540;2023-03-23T04:50:30;35.83;;;33.77;;
15454;SDS011;21057;51.024;7.540;2023-03-23T04:52:59;34.60;;;32.60;;
15454;SDS011;21057;51.024;7.540;2023-03-23T04:55:46;34.47;;;32.47;;
15454;SDS011;21057;51.024;7.540;2023-03-23T04:58:14;36.60;;;34.10;;
15454;SDS011;21057;51.024;7.540;2023-03-23T05:00:46;36.13;;;33.60;;
15454;SDS011;21057;51.024;7.540;2023-03-23T05:03:15;34.83;;;32.33;;
15454;SDS011;21057;51.024;7.540;2023-03-23T05:05:42;34.17;;;32.17;;
15454;SDS011;21057;51.024;7.540;2023-03-23T05:08:12;35.70;;;33.60;;
15454;SDS011;21057;51.024;7.540;2023-03-23T05:10:39;35.50;;;33.40;;
15454;SDS011;21057;51.024;7.540;2023-03-23T05:13:06;36.00;;;33.83;;
15454;SDS011;21057;51.024;7.540;2023-03-23T05:15:32;36.53;;;34.33;;
15454;SDS011;21057;51.024;7.540;2023-03-23T05:18:10;35.40;;;33.20;;
15454;SDS011;21057;51.024;7.540;2023-03-23T05:20:37;36.67;;;34.57;;
15454;SDS011;21057;51.024;7.540;2023-03-23T05:23:04;35.97;;;33.77;;
15454;SDS011;21057;51.024;7.540;2023-03-23T05:25:31;36.37;;;34.27;;
15454;SDS011;21057;51.024;7.540;2023-03-23T05:28:01;38.67;;;36.47;;
15454;SDS011;21057;51.024;7.540;2023-03-23T05:30:29;37.73;;;35.50;;
15454;SDS011;21057;51.024;7.540;2023-03-23T05:33:01;38.13;;;35.87;;
15454;SDS011;21057;51.024;7.540;2023-03-23T05:35:30;40.40;;;38.10;;
15454;SDS011;21057;51.024;7.540;2023-03-23T05:38:12;38.80;;;36.60;;
15454;SDS011;21057;51.024;7.540;2023-03-23T05:40:40;39.50;;;37.10;;
15454;SDS011;21057;51.024;7.540;2023-03-23T05:43:07;41.37;;;38.97;;
15454;SDS011;21057;51.024;7.540;2023-03-23T05:45:34;39.20;;;36.90;;
15454;SDS011;21057;51.024;7.540;2023-03-23T05:48:02;38.07;;;35.67;;
15454;SDS011;21057;51.024;7.540;2023-03-23T05:50:31;36.07;;;33.87;;
15454;SDS011;21057;51.024;7.540;2023-03-23T05:52:58;37.60;;;35.10;;
15454;SDS011;21057;51.024;7.540;2023-03-23T05:55:24;37.47;;;34.90;;
15454;SDS011;21057;51.024;7.540;2023-03-23T05:57:51;37.53;;;35.30;;
15454;SDS011;21057;51.024;7.540;2023-03-23T06:00:19;39.03;;;36.73;;
15454;SDS011;21057;51.024;7.540;2023-03-23T06:02:48;41.20;;;38.70;;
15454;SDS011;21057;51.024;7.540;2023-03-23T06:05:18;38.60;;;36.30;;
15454;SDS011;21057;51.024;7.540;2023-03-23T06:07:46;40.43;;;38.13;;
15454;SDS011;21057;51.024;7.540;2023-03-23T06:10:13;41.07;;;38.73;;
15454;SDS011;21057;51.024;7.540;2023-03-23T06:12:40;40.80;;;38.40;;
15454;SDS011;21057;51.024;7.540;2023-03-23T06:15:07;37.90;;;35.60;;
15454;SDS011;21057;51.024;7.540;2023-03-23T06:17:36;38.90;;;36.70;;
15454;SDS011;21057;51.024;7.540;2023-03-23T06:20:03;40.60;;;38.20;;
15454;SDS011;21057;51.024;7.540;2023-03-23T06:22:36;40.63;;;37.93;;
15454;SDS011;21057;51.024;7.540;2023-03-23T06:25:06;40.37;;;37.83;;
15454;SDS011;21057;51.024;7.540;2023-03-23T06:27:36;37.80;;;35.63;;
15454;SDS011;21057;51.024;7.540;2023-03-23T06:30:03;36.80;;;34.50;;
15454;SDS011;21057;51.024;7.540;2023-03-23T06:35:32;36.47;;;34.17;;
15454;SDS011;21057;51.024;7.540;2023-03-23T06:38:00;37.63;;;35.43;;
15454;SDS011;21057;51.024;7.540;2023-03-23T06:40:28;39.47;;;37.07;;
15454;SDS011;21057;51.024;7.540;2023-03-23T06:42:56;37.53;;;35.10;;
15454;SDS011;21057;51.024;7.540;2023-03-23T06:45:24;36.87;;;34.47;;
15454;SDS011;21057;51.024;7.540;2023-03-23T06:47:51;38.03;;;35.73;;
15454;SDS011;21057;51.024;7.540;2023-03-23T06:50:17;36.50;;;34.10;;
15454;SDS011;21057;51.024;7.540;2023-03-23T06:52:51;35.00;;;32.80;;
15454;SDS011;21057;51.024;7.540;2023-03-23T06:55:37;36.23;;;33.80;;
15454;SDS011;21057;51.024;7.540;2023-03-23T06:58:06;34.13;;;32.03;;
15454;SDS011;21057;51.024;7.540;2023-03-23T07:00:38;33.90;;;31.77;;
15454;SDS011;21057;51.024;7.540;2023-03-23T07:03:12;33.20;;;31.20;;
15454;SDS011;21057;51.024;7.540;2023-03-23T07:05:40;31.70;;;29.70;;
15454;SDS011;21057;51.024;7.540;2023-03-23T07:08:07;28.77;;;27.00;;
15454;SDS011;21057;51.024;7.540;2023-03-23T07:10:34;29.50;;;27.60;;
15454;SDS011;21057;51.024;7.540;2023-03-23T07:13:21;28.90;;;27.00;;
15454;SDS011;21057;51.024;7.540;2023-03-23T07:18:33;27.83;;;26.03;;
15454;SDS011;21057;51.024;7.540;2023-03-23T07:21:00;27.90;;;26.20;;
15454;SDS011;21057;51.024;7.540;2023-03-23T07:23:29;27.50;;;25.80;;
15454;SDS011;21057;51.024;7.540;2023-03-23T07:28:49;29.67;;;27.77;;
15454;SDS011;21057;51.024;7.540;2023-03-23T07:31:16;29.97;;;28.07;;
15454;SDS011;21057;51.024;7.540;2023-03-23T07:33:43;28.60;;;26.90;;
15454;SDS011;21057;51.024;7.540;2023-03-23T07:36:10;29.63;;;27.87;;
15454;SDS011;21057;51.024;7.540;2023-03-23T07:38:38;29.77;;;28.03;;
15454;SDS011;21057;51.024;7.540;2023-03-23T07:41:05;30.30;;;28.40;;
15454;SDS011;21057;51.024;7.540;2023-03-23T07:43:34;30.10;;;28.40;;
15454;SDS011;21057;51.024;7.540;2023-03-23T07:46:09;27.90;;;26.10;;
15454;SDS011;21057;51.024;7.540;2023-03-23T07:48:50;26.90;;;25.30;;
15454;SDS011;21057;51.024;7.540;2023-03-23T07:51:17;26.30;;;24.80;;
15454;SDS011;21057;51.024;7.540;2023-03-23T07:53:44;27.30;;;25.50;;
15454;SDS011;21057;51.024;7.540;2023-03-23T07:56:12;25.90;;;24.40;;
15454;SDS011;21057;51.024;7.540;2023-03-23T07:58:58;25.97;;;24.43;;
15454;SDS011;21057;51.024;7.540;2023-03-23T08:01:25;27.17;;;25.47;;
15454;SDS011;21057;51.024;7.540;2023-03-23T08:03:57;24.87;;;23.37;;
15454;SDS011;21057;51.024;7.540;2023-03-23T08:09:19;23.27;;;21.87;;
15454;SDS011;21057;51.024;7.540;2023-03-23T08:11:46;23.80;;;22.23;;
15454;SDS011;21057;51.024;7.540;2023-03-23T08:14:19;23.57;;;22.07;;
15454;SDS011;21057;51.024;7.540;2023-03-23T08:16:45;23.80;;;22.30;;
15454;SDS011;21057;51.024;7.540;2023-03-23T08:19:13;24.53;;;22.70;;
15454;SDS011;21057;51.024;7.540;2023-03-23T08:21:46;24.17;;;22.43;;
15454;SDS011;21057;51.024;7.540;2023-03-23T08:24:24;24.43;;;22.93;;
15454;SDS011;21057;51.024;7.540;2023-03-23T08:26:51;24.17;;;22.63;;
15454;SDS011;21057;51.024;7.540;2023-03-23T08:29:21;25.33;;;23.67;;
15454;SDS011;21057;51.024;7.540;2023-03-23T08:31:50;25.10;;;23.60;;
15454;SDS011;21057;51.024;7.540;2023-03-23T08:34:18;24.23;;;22.73;;
15454;SDS011;21057;51.024;7.540;2023-03-23T08:36:53;23.67;;;22.27;;
15454;SDS011;21057;51.024;7.540;2023-03-23T08:39:20;24.30;;;22.70;;
15454;SDS011;21057;51.024;7.540;2023-03-23T08:41:55;22.50;;;21.10;;
15454;SDS011;21057;51.024;7.540;2023-03-23T08:44:23;23.37;;;21.67;;
15454;SDS011;21057;51.024;7.540;2023-03-23T08:46:50;22.77;;;21.27;;
15454;SDS011;21057;51.024;7.540;2023-03-23T08:49:21;22.23;;;20.83;;
15454;SDS011;21057;51.024;7.540;2023-03-23T08:51:48;21.60;;;20.20;;
15454;SDS011;21057;51.024;7.540;2023-03-23T08:54:15;21.53;;;20.23;;
15454;SDS011;21057;51.024;7.540;2023-03-23T08:56:42;23.97;;;22.47;;
15454;SDS011;21057;51.024;7.540;2023-03-23T08:59:10;23.73;;;22.33;;
15454;SDS011;21057;51.024;7.540;2023-03-23T09:01:38;23.20;;;21.70;;
15454;SDS011;21057;51.024;7.540;2023-03-23T09:04:07;24.53;;;22.90;;
15454;SDS011;21057;51.024;7.540;2023-03-23T09:06:43;24.43;;;23.00;;
15454;SDS011;21057;51.024;7.540;2023-03-23T09:09:17;24.50;;;23.10;;
15454;SDS011;21057;51.024;7.540;2023-03-23T09:11:52;25.30;;;23.70;;
15454;SDS011;21057;51.024;7.540;2023-03-23T09:14:22;24.80;;;23.20;;
15454;SDS011;21057;51.024;7.540;2023-03-23T09:16:59;24.60;;;23.00;;
15454;SDS011;21057;51.024;7.540;2023-03-23T09:22:18;22.33;;;20.90;;
15454;SDS011;21057;51.024;7.540;2023-03-23T09:24:48;21.87;;;20.57;;
15454;SDS011;21057;51.024;7.540;2023-03-23T09:27:16;21.40;;;19.83;;
15454;SDS011;21057;51.024;7.540;2023-03-23T09:29:44;22.30;;;20.80;;
15454;SDS011;21057;51.024;7.540;2023-03-23T09:32:15;22.67;;;20.87;;
15454;SDS011;21057;51.024;7.540;2023-03-23T09:34:49;22.20;;;20.80;;
15454;SDS011;21057;51.024;7.540;2023-03-23T09:37:18;21.57;;;20.17;;
15454;SDS011;21057;51.024;7.540;2023-03-23T09:39:45;23.13;;;21.57;;
15454;SDS011;21057;51.024;7.540;2023-03-23T09:45:22;23.73;;;22.03;;
15454;SDS011;21057;51.024;7.540;2023-03-23T09:48:00;22.60;;;21.00;;
15454;SDS011;21057;51.024;7.540;2023-03-23T09:50:38;21.43;;;20.07;;
15454;SDS011;21057;51.024;7.540;2023-03-23T09:53:13;23.37;;;21.77;;
15454;SDS011;21057;51.024;7.540;2023-03-23T09:55:43;22.67;;;21.17;;
15454;SDS011;21057;51.024;7.540;2023-03-23T10:00:57;23.20;;;21.57;;
15454;SDS011;21057;51.024;7.540;2023-03-23T10:03:30;21.60;;;20.27;;
15454;SDS011;21057;51.024;7.540;2023-03-23T10:06:02;21.03;;;19.70;;
15454;SDS011;21057;51.024;7.540;2023-03-23T10:11:24;20.60;;;19.30;;
15454;SDS011;21057;51.024;7.540;2023-03-23T10:16:58;20.10;;;18.80;;
15454;SDS011;21057;51.024;7.540;2023-03-23T10:19:40;21.00;;;19.60;;
15454;SDS011;21057;51.024;7.540;2023-03-23T10:22:16;20.90;;;19.50;;
15454;SDS011;21057;51.024;7.540;2023-03-23T10:24:55;20.30;;;19.00;;
15454;SDS011;21057;51.024;7.540;2023-03-23T10:27:31;20.87;;;19.57;;
15454;SDS011;21057;51.024;7.540;2023-03-23T10:30:13;21.37;;;19.77;;
15454;SDS011;21057;51.024;7.540;2023-03-23T10:32:48;20.43;;;19.03;;
15454;SDS011;21057;51.024;7.540;2023-03-23T10:35:23;21.57;;;20.27;;
15454;SDS011;21057;51.024;7.540;2023-03-23T10:37:58;22.83;;;21.43;;
15454;SDS011;21057;51.024;7.540;2023-03-23T10:40:29;21.93;;;20.63;;
15454;SDS011;21057;51.024;7.540;2023-03-23T10:43:07;23.03;;;21.73;;
15454;SDS011;21057;51.024;7.540;2023-03-23T10:45:41;23.77;;;22.37;;
15454;SDS011;21057;51.024;7.540;2023-03-23T10:48:27;24.60;;;22.90;;
15454;SDS011;21057;51.024;7.540;2023-03-23T10:53:49;23.93;;;22.53;;
15454;SDS011;21057;51.024;7.540;2023-03-23T10:56:29;23.90;;;22.50;;
15454;SDS011;21057;51.024;7.540;2023-03-23T10:59:10;24.17;;;22.37;;
15454;SDS011;21057;51.024;7.540;2023-03-23T11:01:48;23.13;;;21.73;;
15454;SDS011;21057;51.024;7.540;2023-03-23T11:04:26;23.47;;;21.77;;
15454;SDS011;21057;51.024;7.540;2023-03-23T11:06:57;23.13;;;21.63;;
15454;SDS011;21057;51.024;7.540;2023-03-23T11:09:37;22.40;;;21.10;;
15454;SDS011;21057;51.024;7.540;2023-03-23T11:12:15;23.30;;;21.87;;
15454;SDS011;21057;51.024;7.540;2023-03-23T11:14:44;24.10;;;22.60;;
15454;SDS011;21057;51.024;7.540;2023-03-23T11:17:19;24.23;;;22.73;;
15454;SDS011;21057;51.024;7.540;2023-03-23T11:19:50;24.80;;;23.40;;
15454;SDS011;21057;51.024;7.540;2023-03-23T11:22:23;23.80;;;22.30;;
15454;SDS011;21057;51.024;7.540;2023-03-23T11:25:00;25.20;;;23.63;;
15454;SDS011;21057;51.024;7.540;2023-03-23T11:27:30;23.40;;;21.93;;
15454;SDS011;21057;51.024;7.540;2023-03-23T11:30:08;24.03;;;22.53;;
15454;SDS011;21057;51.024;7.540;2023-03-23T11:32:37;22.73;;;21.43;;
15454;SDS011;21057;51.024;7.540;2023-03-23T11:35:14;22.70;;;21.30;;
15454;SDS011;21057;51.024;7.540;2023-03-23T11:37:46;22.23;;;20.87;;
15454;SDS011;21057;51.024;7.540;2023-03-23T11:40:16;22.10;;;20.80;;
15454;SDS011;21057;51.024;7.540;2023-03-23T11:42:57;21.70;;;20.10;;
15454;SDS011;21057;51.024;7.540;2023-03-23T11:48:21;21.63;;;20.23;;
15454;SDS011;21057;51.024;7.540;2023-03-23T11:53:48;20.77;;;19.47;;
15454;SDS011;21057;51.024;7.540;2023-03-23T11:59:26;20.70;;;19.40;;
15454;SDS011;21057;51.024;7.540;2023-03-23T12:02:05;21.10;;;19.80;;
15454;SDS011;21057;51.024;7.540;2023-03-23T12:08:01;22.20;;;20.90;;
15454;SDS011;21057;51.024;7.540;2023-03-23T12:10:42;20.53;;;19.23;;
15454;SDS011;21057;51.024;7.540;2023-03-23T12:13:20;20.93;;;19.73;;
15454;SDS011;21057;51.024;7.540;2023-03-23T12:16:07;21.03;;;19.73;;
15454;SDS011;21057;51.024;7.540;2023-03-23T12:18:52;22.13;;;20.83;;
15454;SDS011;21057;51.024;7.540;2023-03-23T12:21:27;22.40;;;21.00;;
15454;SDS011;21057;51.024;7.540;2023-03-23T12:24:08;21.83;;;20.53;;
15454;SDS011;21057;51.024;7.540;2023-03-23T12:27:03;21.83;;;20.47;;
15454;SDS011;21057;51.024;7.540;2023-03-23T12:35:47;21.43;;;20.13;;
15454;SDS011;21057;51.024;7.540;2023-03-23T12:41:15;22.00;;;20.70;;
15454;SDS011;21057;51.024;7.540;2023-03-23T12:43:51;22.17;;;20.77;;
15454;SDS011;21057;51.024;7.540;2023-03-23T12:49:19;22.23;;;20.73;;
15454;SDS011;21057;51.024;7.540;2023-03-23T12:51:51;21.57;;;20.27;;
15454;SDS011;21057;51.024;7.540;2023-03-23T12:54:24;21.27;;;19.97;;
15454;SDS011;21057;51.024;7.540;2023-03-23T12:56:58;21.03;;;19.73;;
15454;SDS011;21057;51.024;7.540;2023-03-23T12:59:32;20.60;;;19.30;;
15454;SDS011;21057;51.024;7.540;2023-03-23T13:02:10;21.30;;;19.80;;
15454;SDS011;21057;51.024;7.540;2023-03-23T13:04:41;21.40;;;20.10;;
15454;SDS011;21057;51.024;7.540;2023-03-23T13:07:14;20.70;;;19.40;;
15454;SDS011;21057;51.024;7.540;2023-03-23T13:09:48;20.90;;;19.60;;
15454;SDS011;21057;51.024;7.540;2023-03-23T13:12:18;20.93;;;19.60;;
15454;SDS011;21057;51.024;7.540;2023-03-23T13:14:50;20.30;;;18.80;;
15454;SDS011;21057;51.024;7.540;2023-03-23T13:17:28;20.43;;;19.13;;
15454;SDS011;21057;51.024;7.540;2023-03-23T13:20:14;20.87;;;19.37;;
15454;SDS011;21057;51.024;7.540;2023-03-23T13:23:02;20.67;;;19.27;;
15454;SDS011;21057;51.024;7.540;2023-03-23T13:28:48;21.03;;;19.63;;
15454;SDS011;21057;51.024;7.540;2023-03-23T13:31:31;20.13;;;18.83;;
15454;SDS011;21057;51.024;7.540;2023-03-23T13:34:12;20.67;;;19.17;;
15454;SDS011;21057;51.024;7.540;2023-03-23T13:36:44;19.33;;;18.13;;
15454;SDS011;21057;51.024;7.540;2023-03-23T13:39:20;19.80;;;18.60;;
15454;SDS011;21057;51.024;7.540;2023-03-23T13:41:59;21.10;;;19.37;;
15454;SDS011;21057;51.024;7.540;2023-03-23T13:44:39;20.10;;;18.90;;
15454;SDS011;21057;51.024;7.540;2023-03-23T13:47:21;20.70;;;19.33;;
15454;SDS011;21057;51.024;7.540;2023-03-23T13:49:55;21.00;;;19.70;;
15454;SDS011;21057;51.024;7.540;2023-03-23T13:52:36;20.50;;;19.20;;
15454;SDS011;21057;51.024;7.540;2023-03-23T13:55:17;20.80;;;19.13;;
15454;SDS011;21057;51.024;7.540;2023-03-23T14:03:35;20.33;;;19.03;;
15454;SDS011;21057;51.024;7.540;2023-03-23T14:06:06;20.63;;;19.33;;
15454;SDS011;21057;51.024;7.540;2023-03-23T14:08:39;19.80;;;18.60;;
15454;SDS011;21057;51.024;7.540;2023-03-23T14:11:17;19.87;;;18.67;;
15454;SDS011;21057;51.024;7.540;2023-03-23T14:13:50;20.37;;;19.07;;
15454;SDS011;21057;51.024;7.540;2023-03-23T14:16:38;20.60;;;19.30;;
15454;SDS011;21057;51.024;7.540;2023-03-23T14:22:03;19.00;;;17.80;;
15454;SDS011;21057;51.024;7.540;2023-03-23T14:24:32;20.17;;;18.93;;
15454;SDS011;21057;51.024;7.540;2023-03-23T14:27:12;20.30;;;19.10;;
15454;SDS011;21057;51.024;7.540;2023-03-23T14:29:57;20.73;;;19.40;;
15454;SDS011;21057;51.024;7.540;2023-03-23T14:32:35;21.17;;;19.60;;
15454;SDS011;21057;51.024;7.540;2023-03-23T14:35:05;20.13;;;18.67;;
15454;SDS011;21057;51.024;7.540;2023-03-23T14:37:40;20.37;;;18.97;;
15454;SDS011;21057;51.024;7.540;2023-03-23T14:40:16;20.97;;;19.67;;
15454;SDS011;21057;51.024;7.540;2023-03-23T14:42:44;21.70;;;19.80;;
15454;SDS011;21057;51.024;7.540;2023-03-23T14:45:21;21.23;;;19.93;;
15454;SDS011;21057;51.024;7.540;2023-03-23T14:47:52;21.07;;;19.77;;
15454;SDS011;21057;51.024;7.540;2023-03-23T14:50:28;21.20;;;19.80;;
15454;SDS011;21057;51.024;7.540;2023-03-23T14:53:09;21.23;;;19.93;;
15454;SDS011;21057;51.024;7.540;2023-03-23T14:55:50;21.77;;;20.07;;
15454;SDS011;21057;51.024;7.540;2023-03-23T15:04:03;20.97;;;19.60;;
15454;SDS011;21057;51.024;7.540;2023-03-23T15:06:48;21.30;;;20.00;;
15454;SDS011;21057;51.024;7.540;2023-03-23T15:12:31;20.67;;;19.30;;
15454;SDS011;21057;51.024;7.540;2023-03-23T15:15:06;21.07;;;19.77;;
15454;SDS011;21057;51.024;7.540;2023-03-23T15:17:53;21.30;;;19.80;;
15454;SDS011;21057;51.024;7.540;2023-03-23T15:23:26;23.17;;;21.77;;
15454;SDS011;21057;51.024;7.540;2023-03-23T15:26:04;22.03;;;20.63;;
15454;SDS011;21057;51.024;7.540;2023-03-23T15:28:38;23.50;;;22.00;;
15454;SDS011;21057;51.024;7.540;2023-03-23T15:31:11;23.10;;;21.60;;
15454;SDS011;21057;51.024;7.540;2023-03-23T15:33:47;22.87;;;21.37;;
15454;SDS011;21057;51.024;7.540;2023-03-23T15:36:17;23.70;;;22.30;;
15454;SDS011;21057;51.024;7.540;2023-03-23T15:38:58;24.47;;;22.87;;
15454;SDS011;21057;51.024;7.540;2023-03-23T15:41:26;23.30;;;21.60;;
15454;SDS011;21057;51.024;7.540;2023-03-23T15:43:56;24.37;;;22.87;;
15454;SDS011;21057;51.024;7.540;2023-03-23T15:46:28;24.10;;;22.60;;
15454;SDS011;21057;51.024;7.540;2023-03-23T15:49:04;24.47;;;22.97;;
15454;SDS011;21057;51.024;7.540;2023-03-23T15:51:39;24.20;;;22.40;;
15454;SDS011;21057;51.024;7.540;2023-03-23T15:54:09;24.60;;;23.07;;
15454;SDS011;21057;51.024;7.540;2023-03-23T15:56:39;24.60;;;23.00;;
15454;SDS011;21057;51.024;7.540;2023-03-23T15:59:08;24.23;;;22.80;;
15454;SDS011;21057;51.024;7.540;2023-03-23T16:01:38;24.10;;;22.60;;
15454;SDS011;21057;51.024;7.540;2023-03-23T16:04:18;22.90;;;21.50;;
15454;SDS011;21057;51.024;7.540;2023-03-23T16:06:54;23.47;;;21.97;;
15454;SDS011;21057;51.024;7.540;2023-03-23T16:12:13;23.20;;;21.80;;
15454;SDS011;21057;51.024;7.540;2023-03-23T16:14:41;22.10;;;20.50;;
15454;SDS011;21057;51.024;7.540;2023-03-23T16:19:41;22.00;;;20.70;;
15454;SDS011;21057;51.024;7.540;2023-03-23T16:22:08;22.17;;;20.83;;
15454;SDS011;21057;51.024;7.540;2023-03-23T16:24:35;22.17;;;20.77;;
15454;SDS011;21057;51.024;7.540;2023-03-23T16:27:04;21.77;;;20.47;;